Time;durP1;ratioP1;P1;durP2;ratioP2;P2;SDS_P1;SDS_P2;PMS_P1;PMS_P2;Temp;Humidity;BMP_temperature;BMP_pressure;BME280_temperature;BME280_humidity;BME280_pressure;Samples;Min_cycle;Max_cycle;Signal;HPM_P1;HPM_P2
2021/11/21 00:01:18;;;;;;;5.65;2.53;;;5.20;94.70;;;;;;4919736;29;20032;-89
2021/11/21 00:03:44;;;;;;;5.38;3.22;;;5.20;94.70;;;;;;4919503;29;20489;-88
2021/11/21 00:06:09;;;;;;;6.32;3.30;;;5.10;94.90;;;;;;4919217;29;20031;-88
2021/11/21 00:08:35;;;;;;;8.25;4.57;;;5.10;95.10;;;;;;4936618;29;20107;-88
2021/11/21 00:11:02;;;;;;;15.27;5.50;;;5.00;95.40;;;;;;4936753;29;20063;-89
2021/11/21 00:13:27;;;;;;;8.25;3.45;;;4.90;95.30;;;;;;4936752;29;20459;-89
2021/11/21 00:15:53;;;;;;;6.13;3.28;;;4.90;95.50;;;;;;4935428;29;20038;-88
2021/11/21 00:18:19;;;;;;;6.65;3.97;;;4.80;95.40;;;;;;4919243;29;20099;-89
2021/11/21 00:20:45;;;;;;;6.75;3.08;;;4.80;95.60;;;;;;4935390;29;20126;-88
2021/11/21 00:23:12;;;;;;;6.72;3.45;;;4.80;95.90;;;;;;4936638;29;20125;-89
2021/11/21 00:25:37;;;;;;;12.82;4.45;;;4.70;96.00;;;;;;4919477;29;20046;-88
2021/11/21 00:28:04;;;;;;;8.75;4.63;;;4.70;96.20;;;;;;4937505;29;20130;-88
2021/11/21 00:30:30;;;;;;;13.50;6.25;;;4.80;96.20;;;;;;4935154;29;20529;-88
2021/11/21 00:32:56;;;;;;;9.88;5.32;;;4.70;96.30;;;;;;4919442;29;20028;-89
2021/11/21 00:35:22;;;;;;;10.70;5.07;;;4.80;96.50;;;;;;4926355;29;20382;-88
2021/11/21 00:37:47;;;;;;;10.38;4.47;;;4.80;96.40;;;;;;4927670;29;20031;-88
2021/11/21 00:40:14;;;;;;;10.93;4.38;;;4.70;96.60;;;;;;4929689;29;20028;-88
2021/11/21 00:42:40;;;;;;;10.10;3.47;;;4.70;96.90;;;;;;4924221;29;20034;-88
2021/11/21 00:45:08;;;;;;;7.97;3.25;;;4.80;97.20;;;;;;4919655;29;20111;-88
2021/11/21 00:47:35;;;;;;;6.53;2.22;;;4.90;97.00;;;;;;4919786;29;20023;-89
2021/11/21 00:50:03;;;;;;;4.60;3.10;;;4.90;97.00;;;;;;4919560;29;20068;-88
2021/11/21 00:52:30;;;;;;;6.55;2.45;;;5.00;97.10;;;;;;4919717;29;20024;-88
2021/11/21 00:57:34;;;;;;;6.35;2.92;;;5.10;96.80;;;;;;4936060;29;20027;-88
2021/11/21 01:00:00;;;;;;;7.18;2.88;;;5.10;96.70;;;;;;4919180;29;20038;-88
2021/11/21 01:02:26;;;;;;;10.27;2.97;;;5.10;96.80;;;;;;4936442;29;20031;-88
2021/11/21 01:04:52;;;;;;;5.30;2.70;;;5.10;97.10;;;;;;4938867;29;20036;-88
2021/11/21 01:07:19;;;;;;;5.38;2.78;;;5.00;96.70;;;;;;4934219;29;20030;-89
2021/11/21 01:09:45;;;;;;;4.95;2.92;;;5.00;97.00;;;;;;4937126;29;20032;-89
2021/11/21 01:12:11;;;;;;;5.82;2.50;;;5.00;96.90;;;;;;4919044;29;20575;-88
2021/11/21 01:14:38;;;;;;;5.97;3.20;;;5.00;97.10;;;;;;4919038;29;20035;-88
2021/11/21 01:17:05;;;;;;;8.23;3.05;;;4.90;97.20;;;;;;4920698;29;20035;-88
2021/11/21 01:19:31;;;;;;;5.13;2.33;;;4.90;97.40;;;;;;4922550;29;20030;-88
2021/11/21 01:21:57;;;;;;;6.78;3.15;;;5.00;97.40;;;;;;4922308;29;20128;-89
2021/11/21 01:24:22;;;;;;;5.45;3.03;;;5.00;97.40;;;;;;4922309;29;20526;-88
2021/11/21 01:26:48;;;;;;;5.20;3.45;;;5.10;97.60;;;;;;4922298;29;20055;-88
2021/11/21 01:29:14;;;;;;;4.85;2.55;;;5.10;97.60;;;;;;4922095;29;20059;-88
2021/11/21 01:31:41;;;;;;;7.82;3.45;;;5.10;97.50;;;;;;4922186;29;20035;-89
2021/11/21 01:34:07;;;;;;;6.72;3.67;;;5.20;97.60;;;;;;4922167;29;20036;-88
2021/11/21 01:36:33;;;;;;;8.10;3.15;;;5.20;97.60;;;;;;4922392;29;20032;-88
2021/11/21 01:38:59;;;;;;;10.52;2.58;;;5.30;97.50;;;;;;4939327;29;20024;-89
2021/11/21 01:41:25;;;;;;;4.75;2.47;;;5.30;97.40;;;;;;4922485;29;20164;-88
2021/11/21 01:43:51;;;;;;;7.90;2.90;;;5.30;97.50;;;;;;4921789;29;20043;-88
2021/11/21 01:46:17;;;;;;;6.30;2.75;;;5.40;97.60;;;;;;4922243;29;20032;-88
2021/11/21 01:48:42;;;;;;;6.28;2.67;;;5.40;97.50;;;;;;4939104;29;20498;-88
2021/11/21 01:51:11;;;;;;;6.85;3.22;;;5.50;97.50;;;;;;4922266;29;20087;-88
2021/11/21 01:53:37;;;;;;;7.18;3.50;;;5.60;97.70;;;;;;4939282;29;20386;-88
2021/11/21 01:56:04;;;;;;;3.72;2.45;;;5.60;97.80;;;;;;4939242;29;20035;-88
2021/11/21 01:58:30;;;;;;;3.85;2.47;;;5.70;97.80;;;;;;4921856;29;20399;-89
2021/11/21 02:00:56;;;;;;;6.43;3.28;;;5.70;97.60;;;;;;4926631;29;20083;-88
2021/11/21 02:03:22;;;;;;;5.22;2.28;;;5.80;97.80;;;;;;4933543;29;20498;-88
2021/11/21 02:05:48;;;;;;;4.82;2.58;;;5.80;97.60;;;;;;4950416;29;20040;-88
2021/11/21 02:08:14;;;;;;;3.75;2.58;;;5.90;97.60;;;;;;4948140;29;20028;-88
2021/11/21 02:10:41;;;;;;;4.35;2.40;;;5.90;97.60;;;;;;4922138;29;20518;-88
2021/11/21 02:13:08;;;;;;;5.05;2.60;;;6.00;97.40;;;;;;4939276;29;20107;-89
2021/11/21 02:15:36;;;;;;;3.50;2.03;;;6.00;97.40;;;;;;4922028;29;20032;-88
2021/11/21 02:18:03;;;;;;;3.25;2.17;;;6.10;97.40;;;;;;4938250;29;20030;-89
2021/11/21 02:20:33;;;;;;;6.03;2.67;;;6.10;97.40;;;;;;4905955;29;20062;-89
2021/11/21 02:23:01;;;;;;;4.32;2.45;;;6.10;97.30;;;;;;4937030;29;20035;-88
2021/11/21 02:25:27;;;;;;;14.02;3.50;;;6.20;97.40;;;;;;4920956;29;20036;-88
2021/11/21 02:27:53;;;;;;;5.30;3.75;;;6.20;97.40;;;;;;4920847;29;20083;-89
2021/11/21 02:30:19;;;;;;;8.23;3.63;;;6.20;97.40;;;;;;4921390;29;20032;-89
2021/11/21 02:32:47;;;;;;;9.25;3.05;;;6.20;97.40;;;;;;4921207;29;20028;-89
2021/11/21 02:35:13;;;;;;;9.25;2.08;;;6.20;97.20;;;;;;4921179;29;20489;-88
2021/11/21 02:37:40;;;;;;;5.70;2.60;;;6.20;97.20;;;;;;4920826;29;20060;-89
2021/11/21 02:40:08;;;;;;;8.15;3.10;;;6.30;97.20;;;;;;4936572;29;20087;-89
2021/11/21 02:42:34;;;;;;;4.28;2.47;;;6.30;97.10;;;;;;4920853;29;20024;-89
2021/11/21 02:45:02;;;;;;;4.18;2.70;;;6.30;97.10;;;;;;4920890;29;20035;-89
2021/11/21 02:47:32;;;;;;;5.00;2.90;;;6.30;97.20;;;;;;4936685;29;20063;-89
2021/11/21 02:49:59;;;;;;;5.30;3.20;;;6.30;97.20;;;;;;4920632;29;20028;-89
2021/11/21 02:52:25;;;;;;;4.43;2.58;;;6.20;97.20;;;;;;4920783;29;20086;-88
2021/11/21 02:54:55;;;;;;;6.30;2.85;;;6.20;97.20;;;;;;4920870;29;20089;-88
2021/11/21 02:57:25;;;;;;;3.88;2.50;;;6.20;97.40;;;;;;4920442;29;20024;-89
2021/11/21 02:59:51;;;;;;;5.95;3.65;;;6.20;97.40;;;;;;4937853;29;20035;-89
2021/11/21 03:02:18;;;;;;;5.40;2.30;;;6.20;97.50;;;;;;4937725;29;20364;-89
2021/11/21 03:04:50;;;;;;;5.53;2.95;;;6.20;97.60;;;;;;4920539;29;20038;-88
2021/11/21 03:07:17;;;;;;;4.07;2.13;;;6.20;97.60;;;;;;4937410;29;20380;-89
2021/11/21 03:09:46;;;;;;;7.03;3.38;;;6.20;97.70;;;;;;4920517;29;20034;-88
2021/11/21 03:12:13;;;;;;;5.18;3.60;;;6.20;97.90;;;;;;4920469;29;20114;-88
2021/11/21 03:14:38;;;;;;;5.80;2.80;;;6.20;98.00;;;;;;4920473;29;20031;-88
2021/11/21 03:17:05;;;;;;;6.18;3.67;;;6.20;98.10;;;;;;4920434;29;20459;-89
2021/11/21 03:19:32;;;;;;;5.95;3.30;;;6.20;98.50;;;;;;4920381;29;20028;-88
2021/11/21 03:21:58;;;;;;;5.78;3.55;;;6.20;98.40;;;;;;4920341;29;20364;-88
2021/11/21 03:24:24;;;;;;;7.03;3.28;;;6.20;98.50;;;;;;4919782;29;20514;-88
2021/11/21 03:26:50;;;;;;;7.45;3.65;;;6.20;98.40;;;;;;4923174;29;20079;-88
2021/11/21 03:29:15;;;;;;;6.65;3.00;;;6.20;98.50;;;;;;4930334;29;20032;-88
2021/11/21 03:31:41;;;;;;;4.78;2.58;;;6.30;98.50;;;;;;4934555;29;20078;-89
2021/11/21 03:34:07;;;;;;;7.13;3.88;;;6.30;98.50;;;;;;4936901;29;20012;-88
2021/11/21 03:36:33;;;;;;;3.83;3.42;;;6.30;98.60;;;;;;4939359;29;20063;-88
2021/11/21 03:39:00;;;;;;;5.05;3.03;;;6.30;98.50;;;;;;4919646;29;20031;-89
2021/11/21 03:41:26;;;;;;;8.07;3.45;;;6.40;98.50;;;;;;4920545;29;20036;-89
2021/11/21 03:43:53;;;;;;;7.00;3.90;;;6.40;98.60;;;;;;4935930;29;20063;-88
2021/11/21 03:46:20;;;;;;;8.10;3.45;;;6.40;98.60;;;;;;4919793;29;20046;-88
2021/11/21 03:48:46;;;;;;;5.60;3.30;;;6.40;98.50;;;;;;4919851;29;20035;-88
2021/11/21 03:51:12;;;;;;;7.13;2.70;;;6.40;98.50;;;;;;4937151;29;20078;-88
2021/11/21 03:53:38;;;;;;;5.35;3.25;;;6.40;98.40;;;;;;4919549;29;20471;-88
2021/11/21 03:56:04;;;;;;;3.13;2.67;;;6.40;98.40;;;;;;4919827;29;20036;-89
2021/11/21 03:58:30;;;;;;;6.15;3.10;;;6.40;98.40;;;;;;4919795;29;20066;-89
2021/11/21 04:00:56;;;;;;;6.70;2.92;;;6.40;98.50;;;;;;4936314;29;20035;-89
2021/11/21 04:03:22;;;;;;;6.88;2.88;;;6.30;98.80;;;;;;4936852;29;20032;-88
2021/11/21 04:05:48;;;;;;;5.22;2.60;;;6.20;98.60;;;;;;4936537;29;20036;-89
2021/11/21 04:08:14;;;;;;;6.53;3.63;;;6.30;98.70;;;;;;4919359;29;20556;-88
2021/11/21 04:10:39;;;;;;;6.97;3.67;;;6.20;98.80;;;;;;4919512;29;20538;-88
2021/11/21 04:13:06;;;;;;;7.30;3.67;;;6.30;98.90;;;;;;4935603;29;20042;-88
2021/11/21 04:15:32;;;;;;;4.65;3.15;;;6.20;99.00;;;;;;4919443;29;20028;-89
2021/11/21 04:17:58;;;;;;;8.52;3.70;;;6.20;99.00;;;;;;4919747;29;20103;-88
2021/11/21 04:20:25;;;;;;;6.05;3.20;;;6.20;99.10;;;;;;4919414;29;20036;-88
2021/11/21 04:22:51;;;;;;;4.88;3.30;;;6.20;99.20;;;;;;4919208;29;20031;-88
2021/11/21 04:25:17;;;;;;;6.53;3.35;;;6.20;99.30;;;;;;4919729;29;20401;-89
2021/11/21 04:27:43;;;;;;;7.82;3.05;;;6.20;99.30;;;;;;4935168;29;20141;-88
2021/11/21 04:30:12;;;;;;;7.00;4.25;;;6.30;99.30;;;;;;4919330;29;20111;-88
2021/11/21 04:32:39;;;;;;;9.30;3.85;;;6.30;99.50;;;;;;4919182;29;20059;-88
2021/11/21 04:35:11;;;;;;;8.20;3.95;;;6.20;99.60;;;;;;4919102;29;20028;-88
2021/11/21 04:37:37;;;;;;;7.95;3.08;;;6.20;99.70;;;;;;4919980;29;20070;-89
2021/11/21 04:40:05;;;;;;;7.55;3.55;;;6.20;99.60;;;;;;4919508;29;20459;-88
2021/11/21 04:42:31;;;;;;;5.07;3.28;;;6.20;99.70;;;;;;4918952;29;20475;-88
2021/11/21 04:44:57;;;;;;;5.47;3.17;;;6.20;99.70;;;;;;4919265;29;20130;-88
2021/11/21 04:47:23;;;;;;;6.75;3.15;;;6.20;99.70;;;;;;4919121;29;20031;-89
2021/11/21 04:49:49;;;;;;;16.08;4.22;;;6.20;99.90;;;;;;4918969;29;20028;-88
2021/11/21 04:52:15;;;;;;;8.10;3.72;;;6.30;99.90;;;;;;4922715;29;20028;-89
2021/11/21 04:54:40;;;;;;;7.85;3.65;;;6.30;99.90;;;;;;4927820;29;20039;-89
2021/11/21 04:57:08;;;;;;;14.48;4.20;;;6.30;99.90;;;;;;4935183;29;20036;-88
2021/11/21 04:59:34;;;;;;;8.30;3.88;;;6.30;99.90;;;;;;4950260;29;20411;-88
2021/11/21 05:02:01;;;;;;;7.22;4.18;;;6.40;99.90;;;;;;4949153;29;20024;-88
2021/11/21 05:04:27;;;;;;;8.48;4.35;;;6.40;99.90;;;;;;4941368;29;20034;-88
2021/11/21 05:06:53;;;;;;;5.70;3.72;;;6.40;99.90;;;;;;4923589;29;20114;-88
2021/11/21 05:09:19;;;;;;;12.40;5.68;;;6.50;99.90;;;;;;4923153;29;20039;-89
2021/11/21 05:11:45;;;;;;;8.77;5.28;;;6.50;99.90;;;;;;4922797;29;20051;-88
2021/11/21 05:14:14;;;;;;;12.95;6.28;;;6.50;99.90;;;;;;4922815;29;20024;-88
2021/11/21 05:16:40;;;;;;;9.00;4.72;;;6.50;99.90;;;;;;4940026;29;20034;-88
2021/11/21 05:19:06;;;;;;;8.50;4.57;;;6.50;99.90;;;;;;4941028;29;20031;-88
2021/11/21 05:21:32;;;;;;;11.60;4.38;;;6.50;99.90;;;;;;4942630;29;20095;-89
2021/11/21 05:24:24;;;;;;;12.43;6.40;;;6.50;99.90;;;;;;4939235;29;20036;-89
2021/11/21 05:26:53;;;;;;;14.10;6.75;;;6.50;99.90;;;;;;4922556;29;20048;-89
2021/11/21 05:29:19;;;;;;;14.52;6.78;;;6.60;99.90;;;;;;4922439;29;20055;-89
2021/11/21 05:31:45;;;;;;;18.75;6.22;;;6.50;99.90;;;;;;4922357;29;20475;-89
2021/11/21 05:34:11;;;;;;;8.73;4.88;;;6.60;99.90;;;;;;4922186;29;20024;-89
2021/11/21 05:36:37;;;;;;;8.45;4.32;;;6.60;99.90;;;;;;4922098;29;20043;-89
2021/11/21 05:39:03;;;;;;;9.68;4.97;;;6.70;99.90;;;;;;4922794;29;20038;-89
2021/11/21 05:41:29;;;;;;;7.45;3.72;;;6.70;99.90;;;;;;4921899;29;20078;-89
2021/11/21 05:43:54;;;;;;;7.88;4.57;;;6.70;99.90;;;;;;4922067;29;20471;-89
2021/11/21 05:46:20;;;;;;;10.23;5.32;;;6.80;99.90;;;;;;4921828;29;20098;-89
2021/11/21 05:48:46;;;;;;;7.47;4.20;;;6.80;99.90;;;;;;4921929;29;20039;-89
2021/11/21 05:51:12;;;;;;;9.30;5.07;;;6.90;99.90;;;;;;4921865;29;20093;-89
2021/11/21 05:53:38;;;;;;;9.45;5.65;;;7.00;99.90;;;;;;4921638;29;20034;-89
2021/11/21 05:56:04;;;;;;;9.07;5.28;;;7.10;99.90;;;;;;4921815;29;20031;-89
2021/11/21 05:58:29;;;;;;;9.25;4.18;;;7.10;99.90;;;;;;4921550;29;20038;-89
2021/11/21 06:00:55;;;;;;;8.68;4.53;;;7.20;99.90;;;;;;4921816;29;20032;-88
2021/11/21 06:03:21;;;;;;;8.48;4.50;;;7.30;99.90;;;;;;4921165;29;20091;-89
2021/11/21 06:05:47;;;;;;;8.85;3.80;;;7.30;99.90;;;;;;4921628;29;20523;-89
2021/11/21 06:08:13;;;;;;;6.72;4.65;;;7.40;99.90;;;;;;4921523;29;20036;-89
2021/11/21 06:10:41;;;;;;;7.35;4.53;;;7.50;99.90;;;;;;4921593;29;20552;-89
2021/11/21 06:13:08;;;;;;;5.85;3.67;;;7.60;99.90;;;;;;4921379;29;20107;-89
2021/11/21 06:15:34;;;;;;;12.05;4.70;;;7.60;99.90;;;;;;4921537;29;20031;-89
2021/11/21 06:18:02;;;;;;;7.07;5.18;;;7.70;99.90;;;;;;4937558;29;20075;-89
2021/11/21 06:20:41;;;;;;;9.20;5.65;;;7.70;99.90;;;;;;4923596;29;20043;-90
2021/11/21 06:23:07;;;;;;;7.30;4.85;;;7.80;99.90;;;;;;4939196;29;20059;-90
2021/11/21 06:25:33;;;;;;;7.53;5.05;;;7.80;99.90;;;;;;4942424;29;20020;-90
2021/11/21 06:27:59;;;;;;;9.48;4.88;;;7.90;99.90;;;;;;4938583;29;20087;-89
2021/11/21 06:30:24;;;;;;;8.07;5.32;;;8.00;99.90;;;;;;4924020;29;20034;-89
2021/11/21 06:32:50;;;;;;;8.48;5.32;;;8.10;99.90;;;;;;4922561;29;20051;-90
2021/11/21 06:35:16;;;;;;;12.55;6.70;;;8.10;99.90;;;;;;4922111;29;20497;-90
2021/11/21 06:37:45;;;;;;;7.70;4.65;;;8.20;99.90;;;;;;4938291;29;20032;-90
2021/11/21 06:40:12;;;;;;;9.05;5.55;;;8.20;99.90;;;;;;4921076;29;20092;-89
2021/11/21 06:42:38;;;;;;;10.50;5.45;;;8.20;99.90;;;;;;4921222;29;20024;-89
2021/11/21 06:45:04;;;;;;;10.70;5.53;;;8.20;99.90;;;;;;4921100;29;20042;-90
2021/11/21 06:47:30;;;;;;;6.93;4.68;;;8.30;99.90;;;;;;4920935;29;20024;-90
2021/11/21 06:50:00;;;;;;;11.27;5.20;;;8.30;99.90;;;;;;4937832;29;20063;-87
2021/11/21 06:52:26;;;;;;;10.65;6.05;;;8.40;99.90;;;;;;4937987;29;20075;-87
2021/11/21 06:54:52;;;;;;;11.65;7.18;;;8.40;99.90;;;;;;4920854;29;20043;-87
2021/11/21 06:57:19;;;;;;;10.10;5.50;;;8.50;99.90;;;;;;4920782;29;20028;-88
2021/11/21 06:59:45;;;;;;;10.90;6.38;;;8.50;99.90;;;;;;4920732;29;20034;-87
2021/11/21 07:02:39;;;;;;;8.55;7.03;;;8.60;99.90;;;;;;4921173;29;20024;-90
2021/11/21 07:05:06;;;;;;;9.32;5.10;;;8.60;99.90;;;;;;4931407;29;20043;-90
2021/11/21 07:07:32;;;;;;;12.20;6.47;;;8.70;99.90;;;;;;4922651;29;20067;-88
2021/11/21 07:09:58;;;;;;;9.25;6.00;;;8.70;99.90;;;;;;4941290;29;20079;-89
2021/11/21 07:12:24;;;;;;;8.38;5.07;;;8.80;99.90;;;;;;4939832;29;20059;-88
2021/11/21 07:14:49;;;;;;;8.68;5.38;;;8.80;99.90;;;;;;4939299;29;20083;-88
2021/11/21 07:17:15;;;;;;;8.93;5.60;;;8.90;99.90;;;;;;4939908;29;20119;-90
2021/11/21 07:19:41;;;;;;;12.05;6.45;;;8.90;99.90;;;;;;4936692;29;20101;-90
2021/11/21 07:22:07;;;;;;;10.10;6.55;;;8.90;99.90;;;;;;4936836;29;20415;-90
2021/11/21 07:24:33;;;;;;;8.80;5.50;;;9.00;99.90;;;;;;4935873;29;20501;-89
2021/11/21 07:26:59;;;;;;;10.05;6.57;;;9.00;99.90;;;;;;4935373;29;20139;-89
2021/11/21 07:29:29;;;;;;;7.25;4.72;;;9.10;99.90;;;;;;4935311;29;20126;-90
2021/11/21 07:32:01;;;;;;;8.80;5.78;;;9.10;99.90;;;;;;4934699;29;20027;-90
2021/11/21 07:34:27;;;;;;;9.40;5.88;;;9.10;99.90;;;;;;4935605;29;20094;-90
2021/11/21 07:36:54;;;;;;;8.05;5.22;;;9.10;99.90;;;;;;4934354;29;20463;-89
2021/11/21 07:39:20;;;;;;;9.98;5.35;;;9.20;99.90;;;;;;4934484;29;20032;-89
2021/11/21 07:41:46;;;;;;;6.05;5.03;;;9.30;99.90;;;;;;4936741;29;20027;-89
2021/11/21 07:44:14;;;;;;;10.60;5.95;;;9.30;99.90;;;;;;4935834;29;20028;-90
2021/11/21 07:46:41;;;;;;;9.55;6.45;;;9.30;99.90;;;;;;4923036;29;20047;-89
2021/11/21 07:49:07;;;;;;;11.35;6.72;;;9.30;99.90;;;;;;4956438;29;20040;-90
2021/11/21 07:51:33;;;;;;;10.13;5.40;;;9.30;99.90;;;;;;4958030;29;20140;-89
2021/11/21 07:53:59;;;;;;;12.60;6.63;;;9.40;99.90;;;;;;4952378;29;20028;-88
2021/11/21 07:56:25;;;;;;;13.75;7.25;;;9.40;99.70;;;;;;4938768;29;20106;-89
2021/11/21 07:58:51;;;;;;;7.50;5.05;;;9.40;99.60;;;;;;4937170;29;20495;-89
2021/11/21 08:01:17;;;;;;;8.60;5.07;;;9.50;99.60;;;;;;4936563;29;20051;-89
2021/11/21 08:03:44;;;;;;;10.50;5.40;;;9.60;99.60;;;;;;4937599;29;20155;-89
2021/11/21 08:06:10;;;;;;;11.38;6.72;;;9.60;99.40;;;;;;4935961;29;20036;-89
2021/11/21 08:08:35;;;;;;;10.82;6.55;;;9.70;99.10;;;;;;4935721;29;20032;-90
2021/11/21 08:11:02;;;;;;;10.05;5.97;;;9.70;99.10;;;;;;4938162;29;20023;-89
2021/11/21 08:13:27;;;;;;;8.98;6.72;;;9.70;99.10;;;;;;4935517;29;20024;-90
2021/11/21 08:15:56;;;;;;;10.13;6.30;;;9.70;99.00;;;;;;4936270;29;20023;-89
2021/11/21 08:18:24;;;;;;;9.57;5.90;;;9.80;99.00;;;;;;4935441;29;20023;-89
2021/11/21 08:20:50;;;;;;;11.88;6.28;;;9.80;98.90;;;;;;4888534;29;20057;-89
2021/11/21 08:23:16;;;;;;;13.43;5.43;;;9.90;98.80;;;;;;4935103;29;20050;-90
2021/11/21 08:25:44;;;;;;;7.65;5.13;;;10.00;98.70;;;;;;4919751;29;20068;-90
2021/11/21 08:28:13;;;;;;;8.05;6.18;;;10.00;98.70;;;;;;4926906;29;20048;-90
2021/11/21 08:30:39;;;;;;;8.40;5.38;;;10.00;98.50;;;;;;4939309;29;20030;-90
2021/11/21 08:33:06;;;;;;;9.48;5.35;;;10.00;98.50;;;;;;4922288;29;20023;-90
2021/11/21 08:35:34;;;;;;;11.52;6.90;;;10.10;98.60;;;;;;4910890;29;20059;-90
2021/11/21 08:38:01;;;;;;;8.70;5.80;;;10.10;98.40;;;;;;4904856;29;20087;-89
2021/11/21 08:40:29;;;;;;;11.27;6.25;;;10.20;98.50;;;;;;4921603;29;20502;-90
2021/11/21 08:43:01;;;;;;;9.38;6.35;;;10.20;98.40;;;;;;4925885;29;20115;-89
2021/11/21 08:45:32;;;;;;;10.20;5.90;;;10.20;98.30;;;;;;4934008;29;20044;-89
2021/11/21 08:48:03;;;;;;;9.30;5.57;;;10.20;98.20;;;;;;4938511;29;20114;-89
2021/11/21 08:50:29;;;;;;;11.82;6.63;;;10.20;98.30;;;;;;4935829;29;20062;-90
2021/11/21 08:52:55;;;;;;;12.07;6.00;;;10.20;98.30;;;;;;4922544;29;20475;-89
2021/11/21 08:55:23;;;;;;;11.52;6.68;;;10.20;98.30;;;;;;4909613;29;20032;-89
2021/11/21 08:57:50;;;;;;;12.10;6.05;;;10.20;98.30;;;;;;4921012;29;20111;-90
2021/11/21 09:00:17;;;;;;;12.35;5.57;;;10.20;98.30;;;;;;4932229;29;20047;-90
2021/11/21 09:02:43;;;;;;;10.95;6.60;;;10.20;98.20;;;;;;4921192;29;20031;-90
2021/11/21 09:05:10;;;;;;;7.72;5.65;;;10.30;98.30;;;;;;4930491;29;20477;-90
2021/11/21 09:07:40;;;;;;;8.93;5.20;;;10.30;98.30;;;;;;4904919;29;20032;-90
2021/11/21 09:10:12;;;;;;;6.78;5.38;;;10.40;98.30;;;;;;4906563;29;20129;-89
2021/11/21 09:12:42;;;;;;;8.48;5.57;;;10.40;98.20;;;;;;4915274;29;20363;-89
2021/11/21 09:18:39;;;;;;;8.68;4.93;;;10.50;98.00;;;;;;4878354;29;20048;-90
2021/11/21 09:21:05;;;;;;;6.53;4.22;;;10.60;97.90;;;;;;4939774;29;20063;-90
2021/11/21 09:23:31;;;;;;;9.15;6.13;;;10.70;97.90;;;;;;4929255;29;20036;-89
2021/11/21 09:25:57;;;;;;;8.00;5.45;;;10.80;97.70;;;;;;4924658;29;20052;-90
2021/11/21 09:28:24;;;;;;;10.10;6.00;;;10.80;97.50;;;;;;4927254;29;20083;-90
2021/11/21 09:30:52;;;;;;;9.35;5.68;;;10.80;97.60;;;;;;4931872;29;20048;-90
2021/11/21 09:33:20;;;;;;;9.73;5.20;;;10.80;97.40;;;;;;4924826;29;20035;-90
2021/11/21 09:35:47;;;;;;;6.18;4.60;;;10.70;97.30;;;;;;4936322;29;20470;-90
2021/11/21 09:38:16;;;;;;;8.35;5.30;;;10.70;97.30;;;;;;4932663;29;20034;-90
2021/11/21 09:40:42;;;;;;;6.05;4.18;;;10.70;97.10;;;;;;4926949;29;20031;-90
2021/11/21 09:43:09;;;;;;;7.07;4.95;;;10.70;97.10;;;;;;4938849;29;20512;-90
2021/11/21 09:45:35;;;;;;;8.90;5.07;;;10.70;96.70;;;;;;4938686;29;20410;-90
2021/11/21 09:48:02;;;;;;;8.23;4.88;;;10.70;96.80;;;;;;4912019;29;20028;-90
2021/11/21 09:50:30;;;;;;;8.07;4.45;;;10.70;96.70;;;;;;4920481;29;20035;-90
2021/11/21 09:52:57;;;;;;;9.52;5.38;;;10.60;96.50;;;;;;4918634;29;20063;-89
2021/11/21 09:55:23;;;;;;;9.93;5.32;;;10.60;96.50;;;;;;4909736;29;20020;-89
2021/11/21 09:57:49;;;;;;;8.07;5.10;;;10.60;96.40;;;;;;4921329;29;20134;-90
2021/11/21 10:00:19;;;;;;;8.98;5.25;;;10.60;96.40;;;;;;4925699;29;20122;-90
2021/11/21 10:02:47;;;;;;;8.35;5.20;;;10.60;96.40;;;;;;4922465;29;20567;-89
2021/11/21 10:05:27;;;;;;;6.55;4.65;;;10.60;96.20;;;;;;4938377;29;20043;-90
2021/11/21 10:08:07;;;;;;;7.35;4.25;;;10.70;96.30;;;;;;4923694;29;20035;-90
2021/11/21 10:11:08;;;;;;;8.27;4.75;;;10.70;95.80;;;;;;4920224;29;20044;-91
2021/11/21 10:13:46;;;;;;;5.68;4.20;;;10.70;95.60;;;;;;4919286;29;20108;-90
2021/11/21 10:16:37;;;;;;;6.95;4.18;;;10.80;95.70;;;;;;4934839;29;20040;-91
2021/11/21 10:19:06;;;;;;;7.68;4.63;;;10.80;95.70;;;;;;4918527;29;20123;-90
2021/11/21 10:21:37;;;;;;;6.78;4.30;;;10.90;95.20;;;;;;4922059;29;20105;-90
2021/11/21 10:24:13;;;;;;;7.75;4.68;;;10.80;95.20;;;;;;4918479;29;20079;-90
2021/11/21 10:26:40;;;;;;;5.13;4.18;;;10.90;95.20;;;;;;4933686;29;20056;-90
2021/11/21 10:29:33;;;;;;;7.30;4.68;;;10.90;95.20;;;;;;4902447;29;20040;-90
2021/11/21 10:32:02;;;;;;;7.07;4.30;;;10.90;95.00;;;;;;4934546;29;20381;-90
2021/11/21 10:34:29;;;;;;;9.80;5.40;;;10.90;94.70;;;;;;4934963;29;20699;-90
2021/11/21 10:37:09;;;;;;;10.85;5.18;;;10.90;94.90;;;;;;4918472;29;20459;-89
2021/11/21 10:39:43;;;;;;;7.18;4.43;;;10.90;94.70;;;;;;4920680;29;20036;-90
2021/11/21 10:42:09;;;;;;;7.80;5.18;;;11.00;94.70;;;;;;4903656;29;20028;-89
2021/11/21 10:44:35;;;;;;;7.15;4.43;;;11.00;94.50;;;;;;4916045;29;20032;-90
2021/11/21 10:47:01;;;;;;;4.97;3.70;;;11.00;94.40;;;;;;4924985;29;20031;-89
2021/11/21 10:49:39;;;;;;;6.45;3.90;;;11.00;93.90;;;;;;4929119;29;20040;-90
2021/11/21 10:52:12;;;;;;;6.55;3.65;;;11.00;93.60;;;;;;4943056;29;20028;-89
2021/11/21 10:55:00;;;;;;;5.53;3.83;;;11.00;93.90;;;;;;4927585;29;20036;-89
2021/11/21 10:57:34;;;;;;;9.93;5.15;;;11.00;93.30;;;;;;4928518;29;20040;-90
2021/11/21 11:00:06;;;;;;;5.28;3.88;;;11.00;93.50;;;;;;4938853;29;20483;-90
2021/11/21 11:02:44;;;;;;;7.30;4.60;;;11.10;93.10;;;;;;4907995;29;20058;-89
2021/11/21 11:05:15;;;;;;;8.75;4.65;;;11.20;93.40;;;;;;4925165;29;20044;-89
2021/11/21 11:07:47;;;;;;;7.78;4.65;;;11.20;93.10;;;;;;4927190;29;20039;-90
2021/11/21 11:10:27;;;;;;;8.27;3.95;;;11.20;93.10;;;;;;4926991;29;20019;-90
2021/11/21 11:12:55;;;;;;;6.15;4.53;;;11.20;93.10;;;;;;4933822;29;20035;-90
2021/11/21 11:15:25;;;;;;;7.60;4.00;;;11.20;93.10;;;;;;4908465;29;20035;-90
2021/11/21 11:17:51;;;;;;;19.10;4.32;;;11.30;93.20;;;;;;4905859;29;20032;-90
2021/11/21 11:20:21;;;;;;;4.60;3.67;;;11.20;93.30;;;;;;4914875;29;20123;-90
2021/11/21 11:22:50;;;;;;;6.00;4.32;;;11.20;93.30;;;;;;4925491;29;20134;-92
2021/11/21 11:25:28;;;;;;;6.53;4.30;;;11.20;93.40;;;;;;4931012;29;20032;-89
2021/11/21 11:28:25;;;;;;;5.97;4.30;;;11.20;93.20;;;;;;4932943;29;20172;-89
2021/11/21 11:31:01;;;;;;;7.38;4.88;;;11.20;93.00;;;;;;4911127;29;20035;-90
2021/11/21 11:33:39;;;;;;;6.05;4.47;;;11.20;93.10;;;;;;4931069;29;20035;-89
2021/11/21 11:36:28;;;;;;;6.75;3.65;;;11.20;93.10;;;;;;4934319;29;20028;-89
2021/11/21 11:39:17;;;;;;;9.65;5.50;;;11.10;92.70;;;;;;4924187;29;20043;-88
2021/11/21 11:41:43;;;;;;;8.90;4.53;;;11.10;93.10;;;;;;4927657;29;20028;-91
2021/11/21 11:44:10;;;;;;;5.47;3.92;;;11.00;93.10;;;;;;4918332;29;20114;-90
2021/11/21 11:46:41;;;;;;;5.65;4.10;;;11.00;93.30;;;;;;4908407;29;20134;-91
2021/11/21 11:49:09;;;;;;;8.23;4.65;;;11.00;93.20;;;;;;4921261;29;20066;-90
2021/11/21 11:51:37;;;;;;;6.57;4.13;;;11.00;93.00;;;;;;4919706;29;20113;-90
2021/11/21 11:54:15;;;;;;;8.90;5.03;;;11.00;93.20;;;;;;4934496;29;20055;-90
2021/11/21 11:56:52;;;;;;;7.30;4.28;;;11.00;93.30;;;;;;4920033;29;20036;-89
2021/11/21 11:59:36;;;;;;;6.78;4.28;;;10.90;93.30;;;;;;4924312;29;20031;-90
2021/11/21 12:02:05;;;;;;;6.60;4.22;;;10.90;93.40;;;;;;4919093;29;20395;-90
2021/11/21 12:04:31;;;;;;;7.13;4.72;;;10.90;93.30;;;;;;4915765;29;20059;-90
2021/11/21 12:07:02;;;;;;;6.30;4.15;;;10.90;93.30;;;;;;4934604;29;20146;-88
2021/11/21 12:09:30;;;;;;;6.25;4.30;;;10.90;93.40;;;;;;4927613;29;20035;-90
2021/11/21 12:12:05;;;;;;;5.97;4.35;;;10.90;93.40;;;;;;4915930;29;20024;-89
2021/11/21 12:14:44;;;;;;;8.13;5.13;;;10.90;93.40;;;;;;4912432;29;20114;-89
2021/11/21 12:17:17;;;;;;;7.38;4.32;;;10.90;93.40;;;;;;4922501;29;20027;-90
2021/11/21 12:19:46;;;;;;;5.47;4.28;;;10.90;93.40;;;;;;4943071;29;20028;-90
2021/11/21 12:22:32;;;;;;;8.32;5.00;;;10.90;93.50;;;;;;4932071;29;20032;-89
2021/11/21 12:25:06;;;;;;;8.68;4.82;;;10.90;93.50;;;;;;4921950;29;20036;-90
2021/11/21 12:27:34;;;;;;;5.97;3.80;;;10.90;93.40;;;;;;4915429;29;20078;-89
2021/11/21 12:30:11;;;;;;;7.88;4.68;;;10.90;93.50;;;;;;4923764;29;20095;-90
2021/11/21 12:33:00;;;;;;;9.05;4.85;;;10.90;93.50;;;;;;4912713;29;20032;-90
2021/11/21 12:35:31;;;;;;;7.47;4.40;;;10.90;93.40;;;;;;4920029;29;20028;-90
2021/11/21 12:38:21;;;;;;;7.10;4.45;;;10.90;93.50;;;;;;4921859;29;20104;-90
2021/11/21 12:40:59;;;;;;;5.95;3.35;;;10.90;93.60;;;;;;4921544;29;20040;-89
2021/11/21 12:43:28;;;;;;;8.20;4.70;;;10.90;93.60;;;;;;4905157;29;20028;-89
2021/11/21 12:46:00;;;;;;;7.68;5.15;;;10.90;93.50;;;;;;4919900;29;20135;-90
2021/11/21 12:48:28;;;;;;;8.02;4.85;;;10.90;93.50;;;;;;4909016;29;20028;-90
2021/11/21 12:50:59;;;;;;;6.13;4.07;;;10.90;93.50;;;;;;4902768;29;20040;-89
2021/11/21 12:53:27;;;;;;;6.88;4.72;;;10.90;93.60;;;;;;4906394;29;20070;-88
2021/11/21 12:55:56;;;;;;;7.45;4.63;;;10.80;93.50;;;;;;4922951;29;20038;-89
2021/11/21 12:58:39;;;;;;;7.05;4.55;;;10.80;93.50;;;;;;4914973;29;20123;-89
2021/11/21 13:01:17;;;;;;;9.10;4.55;;;10.80;93.50;;;;;;4931068;29;20031;-90
2021/11/21 13:03:44;;;;;;;5.38;3.85;;;10.80;93.40;;;;;;4918161;29;20060;-87